Time,TemperatureF,DewpointF,PressureIn,WindDirection,WindDirectionDegrees,WindSpeedMPH,WindSpeedGustMPH,Humidity,HourlyPrecipIn,Conditions,Clouds,dailyrainin,SoftwareType,DateUTC
2013-02-22 00:03:00,31.6,30.4,30.01,South,186,0.0,2.0,95,0.00,,,0.02,meteohub,2013-02-22 07:03:00,
2013-02-22 00:09:00,31.6,30.4,30.01,South,186,0.0,2.0,95,0.00,,,0.02,meteohub,2013-02-22 07:09:00,
2013-02-22 00:14:00,31.5,30.0,30.02,South,186,0.0,2.0,94,0.00,,,0.00,meteohub,2013-02-22 07:14:00,
2013-02-22 00:19:00,31.1,29.7,30.02,SSW,192,2.0,3.0,94,0.00,,,0.00,meteohub,2013-02-22 07:19:00,
2013-02-22 00:25:00,30.7,29.3,30.02,SSW,192,3.0,3.0,94,0.00,,,0.00,meteohub,2013-02-22 07:25:00,
2013-02-22 00:30:00,30.6,28.8,30.02,SSW,192,2.0,3.0,93,0.00,,,0.00,meteohub,2013-02-22 07:30:00,
2013-02-22 00:35:00,30.4,28.6,30.03,SSW,200,2.0,3.0,93,0.00,,,0.00,meteohub,2013-02-22 07:35:00,
2013-02-22 00:41:00,30.4,28.6,30.03,SSW,200,3.0,4.0,93,0.00,,,0.00,meteohub,2013-02-22 07:41:00,
2013-02-22 00:46:00,30.4,28.6,30.03,SSW,200,2.0,4.0,93,0.00,,,0.00,meteohub,2013-02-22 07:46:00,
2013-02-22 00:51:00,30.2,28.4,30.03,SSW,200,2.0,4.0,93,0.00,,,0.00,meteohub,2013-02-22 07:51:00,
2013-02-22 00:57:00,30.2,28.4,30.03,SSW,200,0.0,4.0,93,0.00,,,0.00,meteohub,2013-02-22 07:57:00,
2013-02-22 01:02:00,30.2,28.8,30.03,SSW,200,0.0,3.0,94,0.00,,,0.00,meteohub,2013-02-22 08:02:00,
2013-02-22 01:07:00,30.2,28.8,30.02,SSW,200,3.0,3.0,94,0.00,,,0.00,meteohub,2013-02-22 08:07:00,
2013-02-22 01:12:00,30.2,28.8,30.02,SSW,200,3.0,3.0,94,0.00,,,0.00,meteohub,2013-02-22 08:12:00,
2013-02-22 01:17:00,30.0,28.6,30.02,SSW,200,2.0,3.0,94,0.00,,,0.00,meteohub,2013-02-22 08:17:00,
2013-02-22 01:23:00,30.0,28.6,30.02,SSW,200,2.0,4.0,94,0.00,,,0.00,meteohub,2013-02-22 08:23:00,
2013-02-22 01:28:00,30.0,28.6,30.02,SSW,200,0.0,4.0,94,0.00,,,0.00,meteohub,2013-02-22 08:28:00,
2013-02-22 01:33:00,30.0,28.6,30.02,SSW,200,1.0,3.0,94,0.00,,,0.00,meteohub,2013-02-22 08:33:00,
2013-02-22 01:39:00,29.8,28.4,30.02,SSW,209,2.0,3.0,94,0.00,,,0.00,meteohub,2013-02-22 08:39:00,
2013-02-22 01:44:00,30.0,28.6,30.02,SSW,209,4.0,4.0,94,0.00,,,0.00,meteohub,2013-02-22 08:44:00,
2013-02-22 01:49:00,29.7,27.9,30.02,SSW,209,2.0,5.0,93,0.00,,,0.00,meteohub,2013-02-22 08:49:00,
2013-02-22 01:55:00,29.5,27.7,30.02,SSW,209,2.0,5.0,93,0.00,,,0.00,meteohub,2013-02-22 08:55:00,
2013-02-22 02:00:00,29.3,27.5,30.02,SSW,209,0.0,4.0,93,0.00,,,0.00,meteohub,2013-02-22 09:00:00,
2013-02-22 02:05:00,29.1,27.3,30.02,SSW,209,3.0,4.0,93,0.00,,,0.00,meteohub,2013-02-22 09:05:00,
2013-02-22 02:11:00,28.9,27.0,30.02,SSW,209,0.0,3.0,92,0.00,,,0.00,meteohub,2013-02-22 09:11:00,
2013-02-22 02:16:00,28.6,26.6,30.02,SSW,209,2.0,3.0,92,0.00,,,0.00,meteohub,2013-02-22 09:16:00,
2013-02-22 02:21:00,28.2,26.2,30.01,SSW,209,0.0,4.0,92,0.00,,,0.00,meteohub,2013-02-22 09:21:00,
2013-02-22 02:26:00,28.2,26.2,30.01,SSW,209,2.0,4.0,92,0.00,,,0.00,meteohub,2013-02-22 09:26:00,
2013-02-22 02:32:00,28.0,26.1,30.01,SSW,209,1.0,4.0,92,0.00,,,0.00,meteohub,2013-02-22 09:32:00,
2013-02-22 02:37:00,27.9,25.5,30.02,SSW,209,2.0,4.0,91,0.00,,,0.00,meteohub,2013-02-22 09:37:00,
2013-02-22 02:42:00,27.7,25.3,30.02,SSW,209,3.0,3.0,91,0.00,,,0.00,meteohub,2013-02-22 09:42:00,
2013-02-22 02:47:00,27.9,25.9,30.02,SSW,209,0.0,3.0,92,0.00,,,0.00,meteohub,2013-02-22 09:47:00,
2013-02-22 02:52:00,27.9,26.1,30.02,SSW,209,0.0,4.0,93,0.00,,,0.00,meteohub,2013-02-22 09:52:00,
2013-02-22 02:57:00,27.9,25.9,30.02,SSW,209,2.0,4.0,92,0.00,,,0.00,meteohub,2013-02-22 09:57:00,
2013-02-22 03:02:00,28.0,26.2,30.02,SSW,209,1.0,4.0,93,0.00,,,0.00,meteohub,2013-02-22 10:02:00,
2013-02-22 03:07:00,28.0,26.2,30.02,SSW,209,3.0,4.0,93,0.00,,,0.00,meteohub,2013-02-22 10:07:00,
2013-02-22 03:12:00,28.0,26.2,30.02,SSW,209,2.0,3.0,93,0.00,,,0.00,meteohub,2013-02-22 10:12:00,
2013-02-22 03:17:00,28.0,26.1,30.02,SSW,209,1.0,3.0,92,0.00,,,0.00,meteohub,2013-02-22 10:17:00,
2013-02-22 03:22:00,28.0,25.7,30.02,West,273,4.0,4.0,91,0.00,,,0.00,meteohub,2013-02-22 10:22:00,
2013-02-22 03:28:00,27.9,25.3,30.02,WNW,282,4.0,4.0,90,0.00,,,0.00,meteohub,2013-02-22 10:28:00,
2013-02-22 03:33:00,28.0,25.5,30.03,West,270,5.0,6.0,90,0.00,,,0.00,meteohub,2013-02-22 10:33:00,
2013-02-22 03:38:00,28.0,25.5,30.02,West,270,3.0,6.0,90,0.00,,,0.00,meteohub,2013-02-22 10:38:00,
2013-02-22 03:44:00,28.0,25.7,30.02,West,270,2.0,8.0,91,0.00,,,0.00,meteohub,2013-02-22 10:44:00,
2013-02-22 03:49:00,28.0,25.7,30.02,West,270,3.0,8.0,91,0.00,,,0.00,meteohub,2013-02-22 10:49:00,
2013-02-22 03:54:00,28.0,25.7,30.02,West,270,0.0,4.0,91,0.00,,,0.00,meteohub,2013-02-22 10:54:00,
2013-02-22 04:00:00,27.9,25.3,30.03,West,270,0.0,3.0,90,0.00,,,0.00,meteohub,2013-02-22 11:00:00,
2013-02-22 04:05:00,27.3,24.8,30.02,West,270,0.0,3.0,90,0.00,,,0.00,meteohub,2013-02-22 11:05:00,
2013-02-22 04:10:00,27.1,24.6,30.03,West,270,3.0,3.0,90,0.00,,,0.00,meteohub,2013-02-22 11:10:00,
2013-02-22 04:16:00,27.0,24.4,30.03,West,270,2.0,2.0,90,0.00,,,0.00,meteohub,2013-02-22 11:16:00,
2013-02-22 04:21:00,26.8,24.4,30.03,West,270,1.0,4.0,91,0.00,,,0.00,meteohub,2013-02-22 11:21:00,
2013-02-22 04:26:00,26.4,24.1,30.03,West,270,3.0,4.0,91,0.00,,,0.00,meteohub,2013-02-22 11:26:00,
2013-02-22 04:32:00,26.4,24.1,30.03,West,270,3.0,4.0,91,0.00,,,0.00,meteohub,2013-02-22 11:32:00,
2013-02-22 04:37:00,26.4,24.1,30.04,West,269,1.0,4.0,91,0.00,,,0.00,meteohub,2013-02-22 11:37:00,
2013-02-22 04:42:00,26.2,23.9,30.04,West,269,2.0,4.0,91,0.00,,,0.00,meteohub,2013-02-22 11:42:00,
2013-02-22 04:47:00,26.2,24.3,30.04,West,269,0.0,4.0,92,0.00,,,0.00,meteohub,2013-02-22 11:47:00,
2013-02-22 04:52:00,26.2,24.3,30.04,West,269,3.0,3.0,92,0.00,,,0.00,meteohub,2013-02-22 11:52:00,
2013-02-22 04:57:00,26.2,24.3,30.04,West,269,2.0,3.0,92,0.00,,,0.00,meteohub,2013-02-22 11:57:00,
2013-02-22 05:02:00,26.2,24.3,30.04,West,269,1.0,3.0,92,0.00,,,0.00,meteohub,2013-02-22 12:02:00,
2013-02-22 05:07:00,26.2,24.3,30.04,West,269,2.0,3.0,92,0.00,,,0.00,meteohub,2013-02-22 12:07:00,
2013-02-22 05:12:00,26.2,24.3,30.04,West,269,3.0,3.0,92,0.00,,,0.00,meteohub,2013-02-22 12:12:00,
2013-02-22 05:17:00,26.2,24.3,30.04,West,265,3.0,3.0,92,0.00,,,0.00,meteohub,2013-02-22 12:17:00,
2013-02-22 05:22:00,26.1,24.1,30.04,WSW,252,3.0,3.0,92,0.00,,,0.00,meteohub,2013-02-22 12:22:00,
2013-02-22 05:27:00,26.2,24.3,30.04,WSW,252,2.0,4.0,92,0.00,,,0.00,meteohub,2013-02-22 12:27:00,
2013-02-22 05:32:00,26.2,24.3,30.04,WSW,251,3.0,4.0,92,0.00,,,0.00,meteohub,2013-02-22 12:32:00,
2013-02-22 05:37:00,26.2,24.3,30.04,WSW,251,2.0,4.0,92,0.00,,,0.00,meteohub,2013-02-22 12:37:00,
2013-02-22 05:42:00,25.7,23.2,30.04,NW,312,0.0,4.0,90,0.00,,,0.00,meteohub,2013-02-22 12:42:00,
2013-02-22 05:48:00,25.3,23.0,30.05,NW,312,1.0,4.0,91,0.00,,,0.00,meteohub,2013-02-22 12:48:00,
2013-02-22 05:53:00,25.0,22.5,30.05,NW,312,0.0,4.0,90,0.00,,,0.00,meteohub,2013-02-22 12:53:00,
2013-02-22 05:58:00,25.0,22.6,30.05,NW,311,0.0,4.0,91,0.00,,,0.00,meteohub,2013-02-22 12:58:00,
2013-02-22 06:04:00,24.8,22.3,30.05,NW,309,3.0,4.0,90,0.00,,,0.00,meteohub,2013-02-22 13:04:00,
2013-02-22 06:09:00,24.6,22.5,30.06,NW,309,0.0,4.0,91,0.00,,,0.00,meteohub,2013-02-22 13:09:00,
2013-02-22 06:14:00,24.4,22.5,30.06,NW,309,2.0,4.0,92,0.00,,,0.00,meteohub,2013-02-22 13:14:00,
2013-02-22 06:20:00,24.3,22.1,30.06,NW,309,0.0,4.0,91,0.00,,,0.00,meteohub,2013-02-22 13:20:00,
2013-02-22 06:25:00,24.4,22.5,30.06,NW,309,0.0,4.0,92,0.00,,,0.00,meteohub,2013-02-22 13:25:00,
2013-02-22 06:30:00,24.3,22.3,30.06,NW,309,0.0,3.0,92,0.00,,,0.00,meteohub,2013-02-22 13:30:00,
2013-02-22 06:36:00,24.4,22.6,30.07,NW,309,0.0,3.0,93,0.00,,,0.00,meteohub,2013-02-22 13:36:00,
2013-02-22 06:41:00,24.6,22.8,30.07,NW,309,1.0,3.0,93,0.00,,,0.00,meteohub,2013-02-22 13:41:00,
2013-02-22 06:46:00,25.0,23.5,30.07,WNW,293,2.0,3.0,94,0.00,,,0.00,meteohub,2013-02-22 13:46:00,
2013-02-22 06:52:00,25.2,23.7,30.07,South,188,2.0,3.0,94,0.00,,,0.00,meteohub,2013-02-22 13:52:00,
2013-02-22 06:57:00,25.2,23.4,30.07,South,188,4.0,5.0,93,0.00,,,0.00,meteohub,2013-02-22 13:57:00,
2013-02-22 07:02:00,25.0,23.2,30.08,South,188,2.0,5.0,93,0.00,,,0.00,meteohub,2013-02-22 14:02:00,
2013-02-22 07:07:00,24.6,22.6,30.08,South,188,2.0,4.0,92,0.00,,,0.00,meteohub,2013-02-22 14:07:00,
2013-02-22 07:12:00,24.4,22.3,30.08,South,188,2.0,4.0,91,0.00,,,0.00,meteohub,2013-02-22 14:12:00,
2013-02-22 07:17:00,24.3,22.1,30.08,South,188,3.0,4.0,91,0.00,,,0.00,meteohub,2013-02-22 14:17:00,
2013-02-22 07:22:00,24.6,22.6,30.08,South,188,0.0,4.0,92,0.00,,,0.00,meteohub,2013-02-22 14:22:00,
2013-02-22 07:27:00,25.0,23.0,30.09,SSE,147,0.0,5.0,92,0.00,,,0.00,meteohub,2013-02-22 14:27:00,
2013-02-22 07:32:00,25.2,23.2,30.09,SSE,147,0.0,5.0,92,0.00,,,0.00,meteohub,2013-02-22 14:32:00,
2013-02-22 07:38:00,25.3,23.5,30.09,SSE,147,0.0,5.0,93,0.00,,,0.00,meteohub,2013-02-22 14:38:00,
2013-02-22 07:43:00,25.9,24.1,30.09,SSE,147,0.0,5.0,93,0.00,,,0.00,meteohub,2013-02-22 14:43:00,
2013-02-22 07:48:00,26.2,24.4,30.09,SSE,147,1.0,5.0,93,0.00,,,0.00,meteohub,2013-02-22 14:48:00,
2013-02-22 07:54:00,26.4,24.6,30.09,SSE,147,0.0,5.0,93,0.00,,,0.00,meteohub,2013-02-22 14:54:00,
2013-02-22 07:59:00,27.0,25.0,30.10,SE,146,2.0,4.0,92,0.00,,,0.00,meteohub,2013-02-22 14:59:00,
2013-02-22 08:04:00,27.1,25.3,30.10,ESE,116,0.0,4.0,93,0.00,,,0.00,meteohub,2013-02-22 15:04:00,
2013-02-22 08:10:00,27.3,25.5,30.10,ESE,116,4.0,5.0,93,0.00,,,0.00,meteohub,2013-02-22 15:10:00,
2013-02-22 08:15:00,27.5,25.7,30.11,ESE,116,0.0,5.0,93,0.00,,,0.00,meteohub,2013-02-22 15:15:00,
2013-02-22 08:20:00,27.7,25.9,30.11,ESE,116,2.0,5.0,93,0.00,,,0.00,meteohub,2013-02-22 15:20:00,
2013-02-22 08:26:00,28.0,26.6,30.11,ESE,111,4.0,4.0,94,0.00,,,0.00,meteohub,2013-02-22 15:26:00,
2013-02-22 08:31:00,28.4,27.0,30.11,ESE,108,0.0,4.0,94,0.00,,,0.00,meteohub,2013-02-22 15:31:00,
2013-02-22 08:36:00,28.8,27.0,30.11,ESE,108,4.0,6.0,93,0.00,,,0.00,meteohub,2013-02-22 15:36:00,
2013-02-22 08:42:00,29.1,27.3,30.11,ESE,111,2.0,6.0,93,0.00,,,0.00,meteohub,2013-02-22 15:42:00,
2013-02-22 08:47:00,29.3,27.3,30.11,ESE,111,2.0,8.0,92,0.00,,,0.00,meteohub,2013-02-22 15:47:00,
2013-02-22 08:52:00,29.1,27.1,30.11,ESE,111,6.0,8.0,92,0.00,,,0.00,meteohub,2013-02-22 15:52:00,
2013-02-22 08:57:00,29.3,27.3,30.11,ESE,119,1.0,8.0,92,0.00,,,0.00,meteohub,2013-02-22 15:57:00,
2013-02-22 09:02:00,29.7,27.7,30.12,ESE,115,1.0,8.0,92,0.00,,,0.00,meteohub,2013-02-22 16:02:00,
2013-02-22 09:07:00,30.6,28.6,30.12,ESE,115,2.0,8.0,92,0.00,,,0.00,meteohub,2013-02-22 16:07:00,
2013-02-22 09:12:00,31.5,29.1,30.12,ESE,105,7.0,8.0,91,0.00,,,0.00,meteohub,2013-02-22 16:12:00,
2013-02-22 09:18:00,32.4,29.8,30.12,ESE,122,0.0,8.0,90,0.00,,,0.00,meteohub,2013-02-22 16:18:00,
2013-02-22 09:23:00,32.7,29.3,30.12,ESE,119,5.0,8.0,87,0.00,,,0.00,meteohub,2013-02-22 16:23:00,
2013-02-22 09:28:00,33.3,29.5,30.12,SE,138,6.0,9.0,86,0.00,,,0.00,meteohub,2013-02-22 16:28:00,
2013-02-22 09:34:00,34.0,29.7,30.12,East,97,8.0,9.0,84,0.00,,,0.01,meteohub,2013-02-22 16:34:00,
2013-02-22 09:39:00,34.3,29.5,30.12,SE,124,5.0,11.0,82,0.01,,,0.01,meteohub,2013-02-22 16:39:00,
2013-02-22 09:44:00,34.5,28.4,30.12,ENE,63,4.0,11.0,78,0.01,,,0.01,meteohub,2013-02-22 16:44:00,
2013-02-22 09:50:00,35.1,27.9,30.12,SE,126,0.0,11.0,75,0.01,,,0.01,meteohub,2013-02-22 16:50:00,
2013-02-22 09:55:00,35.1,27.3,30.12,SE,140,5.0,11.0,73,0.01,,,0.01,meteohub,2013-02-22 16:55:00,
2013-02-22 10:00:00,34.9,26.8,30.12,East,83,0.0,11.0,72,0.01,,,0.01,meteohub,2013-02-22 17:00:00,
2013-02-22 10:05:00,35.1,27.3,30.12,NE,47,0.0,11.0,73,0.02,,,0.02,meteohub,2013-02-22 17:05:00,
2013-02-22 10:11:00,35.8,28.0,30.12,East,94,6.0,8.0,73,0.02,,,0.02,meteohub,2013-02-22 17:11:00,
2013-02-22 10:16:00,36.0,27.1,30.12,ESE,104,5.0,8.0,70,0.02,,,0.02,meteohub,2013-02-22 17:16:00,
2013-02-22 10:21:00,36.3,27.9,30.12,East,97,6.0,8.0,71,0.02,,,0.02,meteohub,2013-02-22 17:21:00,
2013-02-22 10:27:00,37.0,27.9,30.12,ESE,104,4.0,8.0,69,0.02,,,0.02,meteohub,2013-02-22 17:27:00,
2013-02-22 10:32:00,37.2,27.0,30.12,ESE,115,0.0,8.0,66,0.02,,,0.02,meteohub,2013-02-22 17:32:00,
2013-02-22 10:37:00,37.4,27.1,30.12,East,84,5.0,8.0,66,0.01,,,0.02,meteohub,2013-02-22 17:37:00,
2013-02-22 10:42:00,37.4,27.5,30.12,ESE,102,5.0,8.0,67,0.01,,,0.02,meteohub,2013-02-22 17:42:00,
2013-02-22 10:47:00,37.6,27.0,30.12,NE,36,2.0,8.0,65,0.01,,,0.02,meteohub,2013-02-22 17:47:00,
2013-02-22 10:52:00,38.1,27.3,30.12,ESE,123,4.0,8.0,65,0.01,,,0.02,meteohub,2013-02-22 17:52:00,
2013-02-22 10:57:00,38.5,26.6,30.12,ENE,62,3.0,7.0,62,0.00,,,0.02,meteohub,2013-02-22 17:57:00,
2013-02-22 11:02:00,38.7,27.9,30.12,ESE,105,5.0,7.0,65,0.00,,,0.02,meteohub,2013-02-22 18:02:00,
2013-02-22 11:07:00,39.4,28.2,30.12,ESE,106,5.0,8.0,64,0.00,,,0.02,meteohub,2013-02-22 18:07:00,
2013-02-22 11:12:00,39.9,27.5,30.12,SE,131,5.0,8.0,61,0.00,,,0.02,meteohub,2013-02-22 18:12:00,
2013-02-22 11:17:00,39.9,27.5,30.12,SE,133,0.0,8.0,61,0.00,,,0.02,meteohub,2013-02-22 18:17:00,
2013-02-22 11:22:00,40.3,27.5,30.12,ESE,115,4.0,8.0,60,0.00,,,0.02,meteohub,2013-02-22 18:22:00,
2013-02-22 11:27:00,40.8,27.7,30.12,ESE,109,1.0,7.0,59,0.00,,,0.02,meteohub,2013-02-22 18:27:00,
2013-02-22 11:32:00,41.4,27.7,30.12,ENE,70,0.0,7.0,58,0.00,,,0.02,meteohub,2013-02-22 18:32:00,
2013-02-22 11:37:00,41.4,27.7,30.12,ENE,72,0.0,8.0,58,0.00,,,0.02,meteohub,2013-02-22 18:37:00,
2013-02-22 11:42:00,41.7,28.4,30.12,East,82,4.0,8.0,59,0.00,,,0.02,meteohub,2013-02-22 18:42:00,
2013-02-22 11:47:00,41.7,27.1,30.12,NE,40,4.0,8.0,56,0.00,,,0.02,meteohub,2013-02-22 18:47:00,
2013-02-22 11:52:00,41.5,27.0,30.12,East,86,4.0,8.0,56,0.00,,,0.02,meteohub,2013-02-22 18:52:00,
2013-02-22 11:57:00,41.7,26.2,30.12,ENE,71,0.0,11.0,54,0.00,,,0.02,meteohub,2013-02-22 18:57:00,
2013-02-22 12:02:00,42.1,25.3,30.11,East,94,0.0,11.0,51,0.00,,,0.02,meteohub,2013-02-22 19:02:00,
2013-02-22 12:07:00,42.4,27.5,30.11,ESE,120,4.0,8.0,55,0.00,,,0.02,meteohub,2013-02-22 19:07:00,
2013-02-22 12:12:00,42.8,26.8,30.12,ESE,123,2.0,8.0,53,0.00,,,0.02,meteohub,2013-02-22 19:12:00,
2013-02-22 12:18:00,43.0,27.5,30.12,ESE,121,6.0,9.0,54,0.00,,,0.02,meteohub,2013-02-22 19:18:00,
2013-02-22 12:23:00,43.5,27.1,30.12,SE,128,1.0,9.0,52,0.00,,,0.02,meteohub,2013-02-22 19:23:00,
2013-02-22 12:28:00,43.9,27.3,30.11,ESE,103,4.0,11.0,52,0.00,,,0.02,meteohub,2013-02-22 19:28:00,
2013-02-22 12:34:00,44.4,26.4,30.11,East,101,4.0,11.0,49,0.00,,,0.02,meteohub,2013-02-22 19:34:00,
2013-02-22 12:39:00,44.2,26.2,30.11,SW,236,1.0,11.0,49,0.00,,,0.02,meteohub,2013-02-22 19:39:00,
2013-02-22 12:44:00,44.6,26.6,30.11,ENE,68,4.0,6.0,49,0.00,,,0.02,meteohub,2013-02-22 19:44:00,
2013-02-22 12:50:00,45.1,26.1,30.11,NE,48,3.0,7.0,47,0.00,,,0.02,meteohub,2013-02-22 19:50:00,
2013-02-22 12:55:00,45.3,25.2,30.10,NNE,16,3.0,7.0,45,0.00,,,0.02,meteohub,2013-02-22 19:55:00,
2013-02-22 13:00:00,45.5,23.7,30.10,North,351,4.0,7.0,42,0.00,,,0.02,meteohub,2013-02-22 20:00:00,
2013-02-22 13:05:00,46.0,25.3,30.10,South,186,8.0,8.0,44,0.00,,,0.02,meteohub,2013-02-22 20:05:00,
2013-02-22 13:11:00,45.9,24.1,30.10,ESE,120,2.0,8.0,42,0.00,,,0.02,meteohub,2013-02-22 20:11:00,
2013-02-22 13:16:00,46.0,24.8,30.09,SSE,157,4.0,8.0,43,0.00,,,0.02,meteohub,2013-02-22 20:16:00,
2013-02-22 13:21:00,46.0,22.5,30.09,ENE,63,0.0,9.0,39,0.00,,,0.02,meteohub,2013-02-22 20:21:00,
2013-02-22 13:27:00,46.6,24.1,30.09,ESE,120,9.0,9.0,41,0.00,,,0.02,meteohub,2013-02-22 20:27:00,
2013-02-22 13:32:00,46.8,24.8,30.09,SSE,165,7.0,11.0,42,0.00,,,0.02,meteohub,2013-02-22 20:32:00,
2013-02-22 13:37:00,47.3,25.3,30.09,South,177,4.0,11.0,42,0.00,,,0.02,meteohub,2013-02-22 20:37:00,
2013-02-22 13:42:00,47.7,23.9,30.09,SE,136,5.0,11.0,39,0.00,,,0.02,meteohub,2013-02-22 20:42:00,
2013-02-22 13:47:00,47.3,21.7,30.09,East,86,3.0,11.0,36,0.00,,,0.02,meteohub,2013-02-22 20:47:00,
2013-02-22 13:52:00,46.9,23.2,30.08,ENE,69,2.0,8.0,39,0.00,,,0.02,meteohub,2013-02-22 20:52:00,
2013-02-22 13:57:00,47.7,23.4,30.08,SSE,152,4.0,8.0,38,0.00,,,0.02,meteohub,2013-02-22 20:57:00,
2013-02-22 14:02:00,47.8,21.6,30.08,ESE,118,7.0,11.0,35,0.00,,,0.02,meteohub,2013-02-22 21:02:00,
2013-02-22 14:07:00,48.4,23.4,30.08,ESE,109,7.0,11.0,37,0.00,,,0.02,meteohub,2013-02-22 21:07:00,
2013-02-22 14:12:00,48.4,22.6,30.07,ESE,114,6.0,11.0,36,0.00,,,0.02,meteohub,2013-02-22 21:12:00,
2013-02-22 14:18:00,48.0,22.3,30.07,East,101,4.0,11.0,36,0.00,,,0.02,meteohub,2013-02-22 21:18:00,
2013-02-22 14:23:00,48.4,21.9,30.07,SSE,157,5.0,11.0,35,0.00,,,0.02,meteohub,2013-02-22 21:23:00,
2013-02-22 14:28:00,48.4,21.4,30.06,ESE,105,6.0,11.0,34,0.00,,,0.02,meteohub,2013-02-22 21:28:00,
2013-02-22 14:33:00,48.6,22.1,30.06,East,97,9.0,11.0,35,0.00,,,0.02,meteohub,2013-02-22 21:33:00,
2013-02-22 14:39:00,48.7,23.0,30.06,South,184,8.0,11.0,36,0.00,,,0.02,meteohub,2013-02-22 21:39:00,
2013-02-22 14:44:00,48.7,20.8,30.06,East,80,3.0,9.0,33,0.00,,,0.02,meteohub,2013-02-22 21:44:00,
2013-02-22 14:49:00,48.6,21.4,30.06,ESE,106,6.0,11.0,34,0.00,,,0.02,meteohub,2013-02-22 21:49:00,
2013-02-22 14:55:00,48.7,21.6,30.06,ENE,59,4.0,11.0,34,0.00,,,0.02,meteohub,2013-02-22 21:55:00,
2013-02-22 15:00:00,49.5,21.6,30.06,SSE,152,8.0,11.0,33,0.00,,,0.02,meteohub,2013-02-22 22:00:00,
2013-02-22 15:05:00,49.6,20.3,30.05,SSW,195,0.0,11.0,31,0.00,,,0.02,meteohub,2013-02-22 22:05:00,
2013-02-22 15:11:00,50.4,20.8,30.06,ESE,121,7.0,10.0,31,0.00,,,0.02,meteohub,2013-02-22 22:11:00,
2013-02-22 15:16:00,50.5,19.4,30.06,East,100,0.0,10.0,29,0.00,,,0.02,meteohub,2013-02-22 22:16:00,
2013-02-22 15:21:00,50.5,19.4,30.06,NE,34,7.0,7.0,29,0.00,,,0.02,meteohub,2013-02-22 22:21:00,
2013-02-22 15:27:00,50.9,18.1,30.06,North,5,5.0,7.0,27,0.00,,,0.02,meteohub,2013-02-22 22:27:00,
2013-02-22 15:32:00,50.7,18.9,30.05,NNE,28,5.0,9.0,28,0.00,,,0.02,meteohub,2013-02-22 22:32:00,
2013-02-22 15:37:00,50.9,18.9,30.05,NNE,23,4.0,9.0,28,0.00,,,0.02,meteohub,2013-02-22 22:37:00,
2013-02-22 15:42:00,50.9,18.1,30.05,NNW,337,7.0,12.0,27,0.00,,,0.02,meteohub,2013-02-22 22:42:00,
2013-02-22 15:48:00,51.1,17.4,30.05,NE,38,2.0,12.0,26,0.00,,,0.02,meteohub,2013-02-22 22:48:00,
2013-02-22 15:53:00,51.1,18.3,30.05,NW,323,6.0,12.0,27,0.00,,,0.02,meteohub,2013-02-22 22:53:00,
2013-02-22 15:58:00,51.1,18.3,30.05,North,5,2.0,12.0,27,0.00,,,0.02,meteohub,2013-02-22 22:58:00,
2013-02-22 16:04:00,51.1,16.5,30.04,NE,46,2.0,11.0,25,0.00,,,0.02,meteohub,2013-02-22 23:04:00,
2013-02-22 16:09:00,50.7,17.1,30.04,NE,38,3.0,11.0,26,0.00,,,0.02,meteohub,2013-02-22 23:09:00,
2013-02-22 16:14:00,50.7,18.0,30.04,NE,54,5.0,10.0,27,0.00,,,0.02,meteohub,2013-02-22 23:14:00,
2013-02-22 16:20:00,50.5,17.8,30.05,North,0,7.0,11.0,27,0.00,,,0.02,meteohub,2013-02-22 23:20:00,
2013-02-22 16:25:00,50.4,16.7,30.04,North,9,10.0,11.0,26,0.00,,,0.02,meteohub,2013-02-22 23:25:00,
2013-02-22 16:30:00,50.0,17.2,30.04,North,5,6.0,12.0,27,0.00,,,0.02,meteohub,2013-02-22 23:30:00,
2013-02-22 16:36:00,49.6,17.8,30.04,North,5,6.0,12.0,28,0.00,,,0.02,meteohub,2013-02-22 23:36:00,
2013-02-22 16:41:00,49.6,18.7,30.04,North,355,6.0,12.0,29,0.00,,,0.02,meteohub,2013-02-22 23:41:00,
2013-02-22 16:46:00,49.6,18.7,30.04,NNE,19,1.0,12.0,29,0.00,,,0.02,meteohub,2013-02-22 23:46:00,
2013-02-22 16:51:00,49.6,19.4,30.04,NNE,24,9.0,10.0,30,0.00,,,0.02,meteohub,2013-02-22 23:51:00,
2013-02-22 16:57:00,49.5,16.9,30.05,North,5,4.0,10.0,27,0.00,,,0.02,meteohub,2013-02-22 23:57:00,
2013-02-22 17:02:00,48.9,17.2,30.05,NNE,18,4.0,12.0,28,0.00,,,0.02,meteohub,2013-02-23 00:02:00,
2013-02-22 17:07:00,48.7,18.0,30.05,North,349,4.0,12.0,29,0.00,,,0.02,meteohub,2013-02-23 00:07:00,
2013-02-22 17:12:00,48.7,18.0,30.05,NNE,28,8.0,12.0,29,0.00,,,0.02,meteohub,2013-02-23 00:12:00,
2013-02-22 17:17:00,48.4,18.3,30.05,North,9,6.0,12.0,30,0.00,,,0.02,meteohub,2013-02-23 00:17:00,
2013-02-22 17:23:00,47.1,18.7,30.05,WNW,289,4.0,10.0,32,0.00,,,0.02,meteohub,2013-02-23 00:23:00,
2013-02-22 17:28:00,46.4,20.3,30.06,West,259,2.0,10.0,35,0.00,,,0.02,meteohub,2013-02-23 00:28:00,
2013-02-22 17:33:00,45.5,20.1,30.06,West,267,2.0,7.0,36,0.00,,,0.02,meteohub,2013-02-23 00:33:00,
2013-02-22 17:39:00,44.8,20.7,30.06,West,266,2.0,7.0,38,0.00,,,0.02,meteohub,2013-02-23 00:39:00,
2013-02-22 17:44:00,44.2,20.3,30.06,West,263,3.0,6.0,38,0.00,,,0.02,meteohub,2013-02-23 00:44:00,
2013-02-22 17:49:00,43.5,20.1,30.06,West,263,0.0,6.0,39,0.00,,,0.02,meteohub,2013-02-23 00:49:00,
2013-02-22 17:55:00,43.0,19.8,30.06,West,263,2.0,6.0,39,0.00,,,0.02,meteohub,2013-02-23 00:55:00,
2013-02-22 18:00:00,42.4,20.5,30.06,SW,232,4.0,5.0,41,0.00,,,0.02,meteohub,2013-02-23 01:00:00,
2013-02-22 18:05:00,42.1,20.1,30.07,SW,233,2.0,5.0,41,0.00,,,0.02,meteohub,2013-02-23 01:05:00,
2013-02-22 18:10:00,41.5,19.6,30.07,WNW,286,4.0,5.0,41,0.00,,,0.02,meteohub,2013-02-23 01:10:00,
2013-02-22 18:15:00,41.5,19.6,30.07,West,275,4.0,5.0,41,0.00,,,0.02,meteohub,2013-02-23 01:15:00,
2013-02-22 18:20:00,41.4,19.9,30.08,West,261,2.0,5.0,42,0.00,,,0.02,meteohub,2013-02-23 01:20:00,
2013-02-22 18:25:00,41.4,19.4,30.07,West,277,2.0,7.0,41,0.00,,,0.02,meteohub,2013-02-23 01:25:00,
2013-02-22 18:31:00,41.4,18.9,30.07,WSW,252,5.0,7.0,40,0.00,,,0.02,meteohub,2013-02-23 01:31:00,
2013-02-22 18:36:00,41.2,19.2,30.08,WNW,284,5.0,7.0,41,0.00,,,0.02,meteohub,2013-02-23 01:36:00,
2013-02-22 18:41:00,40.8,18.9,30.07,West,279,4.0,5.0,41,0.00,,,0.02,meteohub,2013-02-23 01:41:00,
2013-02-22 18:46:00,40.5,19.2,30.07,West,279,5.0,5.0,42,0.00,,,0.02,meteohub,2013-02-23 01:46:00,
2013-02-22 18:52:00,39.9,18.7,30.08,West,278,7.0,8.0,42,0.00,,,0.02,meteohub,2013-02-23 01:52:00,
2013-02-22 18:57:00,39.7,18.5,30.08,WNW,285,6.0,8.0,42,0.00,,,0.02,meteohub,2013-02-23 01:57:00,
2013-02-22 19:02:00,39.4,18.7,30.08,West,279,5.0,8.0,43,0.00,,,0.02,meteohub,2013-02-23 02:02:00,
2013-02-22 19:07:00,39.6,18.3,30.09,WNW,285,6.0,8.0,42,0.00,,,0.02,meteohub,2013-02-23 02:07:00,
2013-02-22 19:13:00,39.6,18.3,30.09,West,277,6.0,7.0,42,0.00,,,0.02,meteohub,2013-02-23 02:13:00,
2013-02-22 19:18:00,39.6,18.3,30.09,West,277,6.0,7.0,42,0.00,,,0.02,meteohub,2013-02-23 02:18:00,
2013-02-22 19:23:00,39.4,18.1,30.09,WNW,286,5.0,8.0,42,0.00,,,0.02,meteohub,2013-02-23 02:23:00,
2013-02-22 19:29:00,39.4,18.7,30.09,WNW,290,7.0,9.0,43,0.00,,,0.02,meteohub,2013-02-23 02:29:00,
2013-02-22 19:34:00,39.4,18.7,30.09,NW,306,8.0,9.0,43,0.00,,,0.02,meteohub,2013-02-23 02:34:00,
2013-02-22 19:39:00,39.6,18.9,30.09,WNW,284,5.0,9.0,43,0.00,,,0.02,meteohub,2013-02-23 02:39:00,
2013-02-22 19:45:00,39.6,18.3,30.09,WNW,301,5.0,9.0,42,0.00,,,0.02,meteohub,2013-02-23 02:45:00,
2013-02-22 19:50:00,39.6,18.3,30.09,West,281,5.0,8.0,42,0.00,,,0.02,meteohub,2013-02-23 02:50:00,
2013-02-22 19:55:00,39.7,18.5,30.09,WNW,287,4.0,8.0,42,0.00,,,0.02,meteohub,2013-02-23 02:55:00,
2013-02-22 20:01:00,39.9,18.7,30.09,NW,315,0.0,7.0,42,0.00,,,0.02,meteohub,2013-02-23 03:01:00,
2013-02-22 20:06:00,39.6,18.3,30.10,NNW,330,4.0,7.0,42,0.00,,,0.02,meteohub,2013-02-23 03:06:00,
2013-02-22 20:11:00,39.4,18.1,30.10,NNE,12,3.0,7.0,42,0.00,,,0.02,meteohub,2013-02-23 03:11:00,
2013-02-22 20:16:00,39.2,19.0,30.10,NNW,340,6.0,7.0,44,0.00,,,0.02,meteohub,2013-02-23 03:16:00,
2013-02-22 20:22:00,38.8,18.9,30.11,WNW,291,3.0,7.0,44,0.00,,,0.02,meteohub,2013-02-23 03:22:00,
2013-02-22 20:27:00,38.7,19.2,30.11,WNW,295,3.0,7.0,45,0.00,,,0.02,meteohub,2013-02-23 03:27:00,
2013-02-22 20:32:00,38.5,19.0,30.11,WNW,296,4.0,7.0,45,0.00,,,0.02,meteohub,2013-02-23 03:32:00,
2013-02-22 20:37:00,37.9,19.6,30.11,WNW,284,2.0,7.0,47,0.00,,,0.02,meteohub,2013-02-23 03:37:00,
2013-02-22 20:42:00,37.8,19.4,30.11,West,275,4.0,6.0,47,0.00,,,0.02,meteohub,2013-02-23 03:42:00,
2013-02-22 20:47:00,37.8,18.3,30.11,West,278,4.0,6.0,45,0.00,,,0.02,meteohub,2013-02-23 03:47:00,
2013-02-22 20:52:00,37.8,18.9,30.11,West,278,4.0,6.0,46,0.00,,,0.02,meteohub,2013-02-23 03:52:00,
2013-02-22 20:57:00,37.8,18.3,30.11,West,277,2.0,6.0,45,0.00,,,0.02,meteohub,2013-02-23 03:57:00,
2013-02-22 21:02:00,37.6,18.1,30.11,West,274,3.0,6.0,45,0.00,,,0.02,meteohub,2013-02-23 04:02:00,
2013-02-22 21:07:00,37.6,18.7,30.11,WNW,293,6.0,6.0,46,0.00,,,0.02,meteohub,2013-02-23 04:07:00,
2013-02-22 21:12:00,37.2,17.8,30.11,WNW,287,6.0,6.0,45,0.00,,,0.02,meteohub,2013-02-23 04:12:00,
2013-02-22 21:17:00,37.2,17.8,30.11,WNW,283,3.0,8.0,45,0.00,,,0.02,meteohub,2013-02-23 04:17:00,
2013-02-22 21:23:00,37.0,18.1,30.12,NW,306,3.0,8.0,46,0.00,,,0.02,meteohub,2013-02-23 04:23:00,
2013-02-22 21:28:00,36.9,19.0,30.11,WNW,301,3.0,7.0,48,0.00,,,0.02,meteohub,2013-02-23 04:28:00,
2013-02-22 21:33:00,36.3,18.5,30.11,West,280,5.0,7.0,48,0.00,,,0.02,meteohub,2013-02-23 04:33:00,
2013-02-22 21:39:00,36.1,18.9,30.12,WNW,300,6.0,6.0,49,0.00,,,0.02,meteohub,2013-02-23 04:39:00,
2013-02-22 21:44:00,36.0,18.1,30.12,WNW,292,4.0,6.0,48,0.00,,,0.02,meteohub,2013-02-23 04:44:00,
2013-02-22 21:49:00,35.6,17.8,30.12,WNW,294,6.0,7.0,48,0.00,,,0.02,meteohub,2013-02-23 04:49:00,
2013-02-22 21:55:00,35.2,18.0,30.12,WNW,292,5.0,7.0,49,0.00,,,0.02,meteohub,2013-02-23 04:55:00,
2013-02-22 22:00:00,35.2,18.0,30.12,WNW,298,4.0,7.0,49,0.00,,,0.02,meteohub,2013-02-23 05:00:00,
2013-02-22 22:01:00,35.2,18.0,30.12,WNW,298,5.0,7.0,49,0.00,,,0.02,meteohub,2013-02-23 05:01:00,
2013-02-22 22:02:00,35.2,18.0,30.12,WNW,297,4.0,7.0,49,0.00,,,0.02,meteohub,2013-02-23 05:02:00,
2013-02-22 22:06:00,35.2,18.5,30.12,WNW,289,4.0,7.0,50,0.00,,,0.02,meteohub,2013-02-23 05:06:00,
2013-02-22 22:12:00,35.1,17.8,30.12,WNW,291,5.0,7.0,49,0.00,,,0.02,meteohub,2013-02-23 05:12:00,
2013-02-22 22:17:00,34.9,18.1,30.12,WNW,290,2.0,6.0,50,0.00,,,0.02,meteohub,2013-02-23 05:17:00,
2013-02-22 22:22:00,34.5,18.3,30.12,WNW,290,2.0,6.0,51,0.00,,,0.02,meteohub,2013-02-23 05:22:00,
2013-02-22 22:27:00,34.5,18.7,30.12,WNW,290,2.0,6.0,52,0.00,,,0.02,meteohub,2013-02-23 05:27:00,
2013-02-22 22:32:00,34.7,19.4,30.12,WNW,289,3.0,6.0,53,0.00,,,0.02,meteohub,2013-02-23 05:32:00,
2013-02-22 22:37:00,34.9,19.4,30.12,West,279,3.0,5.0,53,0.00,,,0.02,meteohub,2013-02-23 05:37:00,
2013-02-22 22:42:00,34.7,19.4,30.13,West,281,4.0,5.0,53,0.00,,,0.02,meteohub,2013-02-23 05:42:00,
2013-02-22 22:47:00,34.3,19.0,30.13,WNW,293,5.0,5.0,53,0.00,,,0.02,meteohub,2013-02-23 05:47:00,
2013-02-22 22:53:00,34.0,19.0,30.13,WNW,288,4.0,5.0,54,0.00,,,0.02,meteohub,2013-02-23 05:53:00,
2013-02-22 22:58:00,33.6,19.6,30.12,WNW,287,3.0,7.0,56,0.00,,,0.02,meteohub,2013-02-23 05:58:00,
2013-02-22 23:03:00,33.6,18.7,30.12,WNW,286,5.0,7.0,54,0.00,,,0.02,meteohub,2013-02-23 06:03:00,
2013-02-22 23:09:00,33.8,19.4,30.12,WNW,286,6.0,8.0,55,0.00,,,0.02,meteohub,2013-02-23 06:09:00,
2013-02-22 23:14:00,34.0,19.6,30.13,WNW,285,6.0,8.0,55,0.00,,,0.02,meteohub,2013-02-23 06:14:00,
2013-02-22 23:20:00,34.2,19.2,30.13,West,277,2.0,8.0,54,0.00,,,0.02,meteohub,2013-02-23 06:20:00,
2013-02-22 23:25:00,34.2,19.2,30.13,West,276,2.0,8.0,54,0.00,,,0.02,meteohub,2013-02-23 06:25:00,
2013-02-22 23:30:00,34.2,19.2,30.13,West,279,2.0,7.0,54,0.00,,,0.02,meteohub,2013-02-23 06:30:00,
2013-02-22 23:36:00,34.2,18.9,30.13,West,279,4.0,6.0,53,0.00,,,0.02,meteohub,2013-02-23 06:36:00,
2013-02-22 23:41:00,34.2,18.3,30.13,WNW,285,4.0,6.0,52,0.00,,,0.02,meteohub,2013-02-23 06:41:00,
2013-02-22 23:46:00,34.3,18.5,30.13,WNW,286,3.0,6.0,52,0.00,,,0.02,meteohub,2013-02-23 06:46:00,
2013-02-22 23:52:00,34.2,18.3,30.13,WNW,282,4.0,6.0,52,0.00,,,0.02,meteohub,2013-02-23 06:52:00,
2013-02-22 23:57:00,34.0,18.1,30.13,WNW,285,5.0,6.0,52,0.00,,,0.02,meteohub,2013-02-23 06:57:00,